createdAt,value
2022-11-19T00:02:03.562Z,0.20
2022-11-19T00:04:30.316Z,0.20
2022-11-19T00:06:57.128Z,0.20
2022-11-19T00:09:26.465Z,0.20
2022-11-19T00:12:14.587Z,0.20
2022-11-19T00:14:45.772Z,0.20
2022-11-19T00:17:12.457Z,0.20
2022-11-19T00:19:41.656Z,0.20
2022-11-19T00:22:08.388Z,0.20
2022-11-19T00:24:37.317Z,0.20
2022-11-19T00:27:08.811Z,0.20
2022-11-19T00:29:35.511Z,0.20
2022-11-19T00:32:02.318Z,0.20
2022-11-19T00:34:29.050Z,0.30
2022-11-19T00:36:55.846Z,0.30
2022-11-19T00:39:23.095Z,0.20
2022-11-19T00:41:49.917Z,0.20
2022-11-19T00:44:18.886Z,0.20
2022-11-19T00:46:48.011Z,0.20
2022-11-19T00:49:14.765Z,0.20
2022-11-19T00:51:43.618Z,0.20
2022-11-19T00:54:10.335Z,0.10
2022-11-19T00:56:37.061Z,0.20
2022-11-19T00:59:03.921Z,0.20
2022-11-19T01:01:30.711Z,0.10
2022-11-19T01:03:57.705Z,0.20
2022-11-19T01:06:25.100Z,0.20
2022-11-19T01:08:52.528Z,0.20
2022-11-19T01:11:23.219Z,0.20
2022-11-19T01:13:49.974Z,0.20
2022-11-19T01:16:23.162Z,0.20
2022-11-19T01:18:52.413Z,0.10
2022-11-19T01:21:23.045Z,0.10
2022-11-19T01:23:52.240Z,0.20
2022-11-19T01:26:21.301Z,0.20
2022-11-19T01:28:48.210Z,0.20
2022-11-19T01:31:21.494Z,0.20
2022-11-19T01:33:48.690Z,0.20
2022-11-19T01:36:26.278Z,0.20
2022-11-19T01:38:55.950Z,0.20
2022-11-19T01:41:27.889Z,0.30
2022-11-19T01:44:02.325Z,0.30
2022-11-19T01:46:33.976Z,0.30
2022-11-19T01:49:13.041Z,0.30
2022-11-19T01:51:44.352Z,0.30
2022-11-19T01:54:21.388Z,0.10
2022-11-19T01:56:48.095Z,-0.10
2022-11-19T01:59:16.208Z,-0.10
2022-11-19T02:01:46.128Z,-0.10
2022-11-19T02:04:16.596Z,-0.10
2022-11-19T02:06:43.425Z,0.00
2022-11-19T02:09:10.140Z,0.00
2022-11-19T02:12:15.061Z,0.00
2022-11-19T02:15:02.793Z,0.00
2022-11-19T02:17:57.279Z,0.00
2022-11-19T02:20:42.640Z,0.10
2022-11-19T02:23:21.431Z,0.00
2022-11-19T02:26:09.505Z,0.00
2022-11-19T02:28:56.240Z,-0.10
2022-11-19T02:31:25.402Z,-0.10
2022-11-19T02:34:01.738Z,-0.10
2022-11-19T02:36:32.984Z,0.00
2022-11-19T02:39:08.212Z,0.00
2022-11-19T02:41:46.210Z,0.00
2022-11-19T02:44:54.328Z,0.00
2022-11-19T02:47:22.732Z,0.00
2022-11-19T02:49:53.534Z,-0.20
2022-11-19T02:52:22.532Z,-0.20
2022-11-19T02:54:49.217Z,-0.20
2022-11-19T02:57:15.954Z,-0.20
2022-11-19T03:00:07.471Z,-0.20
2022-11-19T03:02:55.088Z,-0.20
2022-11-19T03:05:23.984Z,-0.10
2022-11-19T03:07:52.812Z,-0.20
2022-11-19T03:10:25.185Z,-0.10
2022-11-19T03:12:54.545Z,-0.20
2022-11-19T03:15:59.191Z,-0.20
2022-11-19T03:18:47.691Z,-0.20
2022-11-19T03:21:39.864Z,-0.20
2022-11-19T03:24:23.272Z,-0.20
2022-11-19T03:27:00.866Z,-0.20
2022-11-19T03:29:27.864Z,-0.10
2022-11-19T03:32:01.016Z,-0.10
2022-11-19T03:34:28.416Z,-0.10
2022-11-19T03:36:56.551Z,0.00
2022-11-19T03:39:23.262Z,0.00
2022-11-19T03:41:52.875Z,0.10
2022-11-19T03:44:31.442Z,0.10
2022-11-19T03:47:00.942Z,0.10
2022-11-19T03:49:32.038Z,0.10
2022-11-19T03:52:04.742Z,0.10
2022-11-19T03:54:31.564Z,0.10
2022-11-19T03:56:58.478Z,0.10
2022-11-19T03:59:30.429Z,0.10
2022-11-19T04:01:58.950Z,0.10
2022-11-19T04:04:37.814Z,0.10
2022-11-19T04:07:05.373Z,0.20
2022-11-19T04:09:34.631Z,0.20
2022-11-19T04:12:01.658Z,0.20
2022-11-19T04:14:28.410Z,0.20
2022-11-19T04:16:55.205Z,0.30
2022-11-19T04:19:24.445Z,0.20
2022-11-19T04:21:53.822Z,0.20
2022-11-19T04:24:22.761Z,0.20
2022-11-19T04:26:49.464Z,0.20
2022-11-19T04:29:16.335Z,0.30
2022-11-19T04:31:43.094Z,0.20
2022-11-19T04:34:09.796Z,0.20
2022-11-19T04:36:40.239Z,0.20
2022-11-19T04:39:07.057Z,0.20
2022-11-19T04:41:34.290Z,0.20
2022-11-19T04:44:01.109Z,0.20
2022-11-19T04:46:27.794Z,0.20
2022-11-19T04:48:54.564Z,0.10
2022-11-19T04:51:21.267Z,0.20
2022-11-19T04:53:50.147Z,0.10
2022-11-19T04:56:16.897Z,0.10
2022-11-19T04:58:43.620Z,0.10
2022-11-19T05:01:10.439Z,0.10
2022-11-19T05:03:37.121Z,0.10
2022-11-19T05:06:03.908Z,0.10
2022-11-19T05:08:30.637Z,0.10
2022-11-19T05:10:57.356Z,0.10
2022-11-19T05:13:24.250Z,0.10
2022-11-19T05:15:50.927Z,0.10
2022-11-19T05:18:17.791Z,0.10
2022-11-19T05:20:44.484Z,0.10
2022-11-19T05:23:13.693Z,0.10
2022-11-19T05:25:43.349Z,0.20
2022-11-19T05:28:10.153Z,0.20
2022-11-19T05:30:37.031Z,0.20
2022-11-19T05:33:03.828Z,0.20
2022-11-19T05:35:30.570Z,0.20
2022-11-19T05:37:59.916Z,0.20
2022-11-19T05:40:29.096Z,0.20
2022-11-19T05:42:58.247Z,0.10
2022-11-19T05:45:24.998Z,0.00
2022-11-19T05:47:55.159Z,0.10
2022-11-19T05:50:24.338Z,0.10
2022-11-19T05:52:53.541Z,0.10
2022-11-19T05:55:22.728Z,0.00
2022-11-19T05:57:49.581Z,0.00
2022-11-19T06:00:18.005Z,0.10
2022-11-19T06:02:44.844Z,0.10
2022-11-19T06:05:11.740Z,0.10
2022-11-19T06:07:38.576Z,0.10
2022-11-19T06:10:05.642Z,0.10
2022-11-19T06:12:32.329Z,0.10
2022-11-19T06:15:02.066Z,0.10
2022-11-19T06:17:29.028Z,0.10
2022-11-19T06:19:55.807Z,0.10
2022-11-19T06:22:22.535Z,0.10
2022-11-19T06:24:51.713Z,0.10
2022-11-19T06:27:18.859Z,0.00
2022-11-19T06:29:45.774Z,0.10
2022-11-19T06:32:12.552Z,0.10
2022-11-19T06:34:41.712Z,0.00
2022-11-19T06:37:08.487Z,0.00
2022-11-19T06:39:35.248Z,0.00
2022-11-19T06:42:20.893Z,0.00
2022-11-19T06:44:50.062Z,0.00
2022-11-19T06:47:19.230Z,0.10
2022-11-19T06:49:46.007Z,0.10
2022-11-19T06:52:12.687Z,0.10
2022-11-19T06:54:42.974Z,0.10
2022-11-19T06:57:12.471Z,0.10
2022-11-19T06:59:41.694Z,0.10
2022-11-19T07:02:09.951Z,0.10
2022-11-19T07:04:36.649Z,0.10
2022-11-19T07:07:03.717Z,0.10
2022-11-19T07:09:30.413Z,0.00
2022-11-19T07:11:57.158Z,0.00
2022-11-19T07:14:23.940Z,0.00
2022-11-19T07:16:50.652Z,-0.10
2022-11-19T07:19:17.686Z,-0.10
2022-11-19T07:21:47.119Z,-0.10
2022-11-19T07:24:16.122Z,-0.10
2022-11-19T07:26:45.130Z,-0.10
2022-11-19T07:29:13.079Z,-0.10
2022-11-19T07:31:39.768Z,-0.10
2022-11-19T07:34:11.956Z,-0.10
2022-11-19T07:36:41.120Z,-0.10
2022-11-19T07:39:10.367Z,-0.10
2022-11-19T07:41:55.784Z,0.00
2022-11-19T07:44:22.520Z,0.00
2022-11-19T07:46:51.477Z,0.00
2022-11-19T07:49:20.705Z,0.00
2022-11-19T07:51:47.822Z,0.00
2022-11-19T07:54:16.701Z,0.00
2022-11-19T07:56:46.093Z,0.00
2022-11-19T07:59:15.849Z,-0.10
2022-11-19T08:01:43.053Z,-0.10
2022-11-19T08:04:09.879Z,-0.20
2022-11-19T08:06:36.593Z,-0.20
2022-11-19T08:09:04.021Z,-0.30
2022-11-19T08:11:30.835Z,-0.40
2022-11-19T08:14:01.971Z,-0.40
2022-11-19T08:16:47.138Z,-0.40
2022-11-19T08:19:16.053Z,-0.40
2022-11-19T08:21:44.378Z,-0.30
2022-11-19T08:24:11.463Z,-0.20
2022-11-19T08:26:38.405Z,-0.20
2022-11-19T08:29:05.484Z,-0.30
2022-11-19T08:31:32.239Z,-0.20
2022-11-19T08:34:00.522Z,-0.20
2022-11-19T08:36:27.681Z,-0.20
2022-11-19T08:38:58.262Z,-0.20
2022-11-19T08:41:43.804Z,-0.20
2022-11-19T08:44:10.743Z,-0.10
2022-11-19T08:46:38.125Z,-0.10
2022-11-19T08:49:07.169Z,-0.10
2022-11-19T08:51:36.489Z,-0.10
2022-11-19T08:54:03.213Z,-0.20
2022-11-19T08:56:29.974Z,-0.30
2022-11-19T08:59:02.270Z,-0.20
2022-11-19T09:01:32.043Z,-0.20
2022-11-19T09:03:58.947Z,-0.20
2022-11-19T09:06:25.805Z,-0.10
2022-11-19T09:08:52.600Z,-0.10
2022-11-19T09:11:22.150Z,-0.10
2022-11-19T09:13:48.891Z,0.00
2022-11-19T09:16:15.681Z,0.10
2022-11-19T09:18:42.581Z,0.20
2022-11-19T09:21:12.390Z,0.00
2022-11-19T09:23:39.331Z,0.00
2022-11-19T09:26:09.660Z,0.10
2022-11-19T09:28:38.991Z,0.10
2022-11-19T09:31:08.065Z,0.10
2022-11-19T09:33:36.515Z,0.10
2022-11-19T09:36:03.760Z,0.10
2022-11-19T09:38:35.147Z,0.20
2022-11-19T09:41:18.870Z,0.20
2022-11-19T09:43:50.709Z,0.10
2022-11-19T09:46:25.754Z,0.10
2022-11-19T09:48:52.969Z,0.10
2022-11-19T09:51:22.157Z,0.10
2022-11-19T09:53:55.558Z,0.20
2022-11-19T09:56:35.268Z,0.20
2022-11-19T09:59:07.106Z,0.20
2022-11-19T10:01:35.999Z,0.20
2022-11-19T10:04:02.856Z,0.20
2022-11-19T10:06:35.462Z,0.20
2022-11-19T10:09:21.142Z,0.10
2022-11-19T10:12:06.671Z,0.20
2022-11-19T10:14:42.488Z,0.30
2022-11-19T10:17:35.482Z,0.20
2022-11-19T10:20:08.656Z,0.20
2022-11-19T10:22:38.555Z,0.20
2022-11-19T10:25:11.357Z,0.00
2022-11-19T10:27:55.215Z,-0.20
2022-11-19T10:30:24.244Z,-0.10
2022-11-19T10:33:10.674Z,-0.10
2022-11-19T10:35:40.906Z,0.00
2022-11-19T10:38:16.708Z,0.00
2022-11-19T10:40:55.824Z,0.00
2022-11-19T10:43:41.748Z,0.00
2022-11-19T10:46:09.659Z,-0.10
2022-11-19T10:48:50.274Z,0.00
2022-11-19T10:51:33.663Z,0.00
2022-11-19T10:54:02.699Z,0.00
2022-11-19T10:56:36.916Z,0.00
2022-11-19T10:59:09.860Z,0.00
2022-11-19T11:01:38.273Z,0.10
2022-11-19T11:04:20.924Z,0.10
2022-11-19T11:06:55.179Z,0.10
2022-11-19T11:09:28.104Z,0.20
2022-11-19T11:12:13.407Z,0.20
2022-11-19T11:14:52.937Z,0.20
2022-11-19T11:17:30.821Z,0.30
2022-11-19T11:19:58.956Z,0.30
2022-11-19T11:22:26.336Z,0.40
2022-11-19T11:24:53.061Z,0.30
2022-11-19T11:27:33.661Z,0.40
2022-11-19T11:30:14.311Z,0.40
2022-11-19T11:32:41.446Z,0.50
2022-11-19T11:35:34.564Z,0.50
2022-11-19T11:38:03.911Z,0.50
2022-11-19T11:40:31.105Z,0.40
2022-11-19T11:42:57.805Z,0.40
2022-11-19T11:45:31.949Z,0.40
2022-11-19T11:48:06.232Z,0.30
2022-11-19T11:50:35.552Z,0.30
2022-11-19T11:53:09.357Z,0.30
2022-11-19T11:55:41.320Z,0.30
2022-11-19T11:58:34.004Z,0.40
2022-11-19T12:01:19.914Z,0.40
2022-11-19T12:03:56.807Z,0.50
2022-11-19T12:06:26.288Z,0.50
2022-11-19T12:09:01.288Z,0.50
2022-11-19T12:11:54.206Z,0.50
2022-11-19T12:14:50.809Z,0.40
2022-11-19T12:17:32.411Z,0.40
2022-11-19T12:20:36.081Z,0.40
2022-11-19T12:23:11.974Z,0.40
2022-11-19T12:26:12.898Z,0.40
2022-11-19T12:28:46.182Z,0.40
2022-11-19T12:31:15.779Z,0.50
2022-11-19T12:34:01.481Z,0.50
2022-11-19T12:36:50.573Z,0.50
2022-11-19T12:39:35.565Z,0.60
2022-11-19T12:42:39.704Z,0.60
2022-11-19T12:45:12.760Z,0.60
2022-11-19T12:47:45.289Z,0.70
2022-11-19T12:50:27.139Z,0.70
2022-11-19T12:52:56.999Z,0.70
2022-11-19T12:55:33.363Z,0.80
2022-11-19T12:58:29.629Z,0.70
2022-11-19T13:01:05.068Z,0.70
2022-11-19T13:03:59.457Z,0.60
2022-11-19T13:06:50.312Z,0.50
2022-11-19T13:09:36.592Z,0.50
2022-11-19T13:12:09.117Z,0.50
2022-11-19T13:14:44.887Z,0.50
2022-11-19T13:17:36.111Z,0.50
2022-11-19T13:20:22.418Z,0.60
2022-11-19T13:22:49.522Z,0.50
2022-11-19T13:25:25.943Z,0.50
2022-11-19T13:27:53.578Z,0.50
2022-11-19T13:30:26.782Z,0.50
2022-11-19T13:33:05.811Z,0.50
2022-11-19T13:36:03.288Z,0.50
2022-11-19T13:38:59.352Z,0.50
2022-11-19T13:41:31.393Z,0.60
2022-11-19T13:44:20.036Z,0.60
2022-11-19T13:46:57.377Z,0.60
2022-11-19T13:49:36.868Z,0.60
2022-11-19T13:52:17.205Z,0.70
2022-11-19T13:54:45.161Z,0.60
2022-11-19T13:57:43.372Z,0.60
2022-11-19T14:00:39.348Z,0.60
2022-11-19T14:03:20.441Z,0.70
2022-11-19T14:06:02.902Z,0.70
2022-11-19T14:08:49.865Z,0.70
2022-11-19T14:12:13.011Z,0.60
2022-11-19T14:15:01.189Z,0.60
2022-11-19T14:18:11.471Z,0.60
2022-11-19T14:21:01.399Z,0.50
2022-11-19T14:26:41.525Z,0.50
2022-11-19T14:29:26.327Z,0.50
2022-11-19T14:32:16.028Z,0.40
2022-11-19T14:35:07.441Z,1.50
2022-11-19T14:37:36.893Z,0.40
2022-11-19T14:40:12.645Z,0.50
2022-11-19T14:43:19.794Z,0.50
2022-11-19T14:46:02.844Z,0.50
2022-11-19T14:48:30.379Z,0.50
2022-11-19T14:51:09.962Z,0.50
2022-11-19T14:53:37.595Z,0.50
2022-11-19T14:56:11.483Z,0.50
2022-11-19T14:58:38.198Z,0.40
2022-11-19T15:01:18.015Z,0.50
2022-11-19T15:03:52.747Z,0.50
2022-11-19T15:06:19.540Z,0.50
2022-11-19T15:08:51.962Z,0.50
2022-11-19T15:11:24.346Z,0.50
2022-11-19T15:14:28.126Z,0.50
2022-11-19T15:16:58.329Z,0.50
2022-11-19T15:19:34.609Z,0.50
2022-11-19T15:22:10.889Z,0.50
2022-11-19T15:24:47.573Z,0.50
2022-11-19T15:27:20.090Z,0.50
2022-11-19T15:29:52.635Z,0.50
2022-11-19T15:32:34.477Z,0.50
2022-11-19T15:35:11.823Z,0.50
2022-11-19T15:37:56.288Z,0.50
2022-11-19T15:40:28.966Z,0.50
2022-11-19T15:43:19.314Z,0.40
2022-11-19T15:46:06.234Z,0.40
2022-11-19T15:48:49.944Z,0.40
2022-11-19T15:51:16.715Z,0.40
2022-11-19T15:54:06.272Z,0.40
2022-11-19T15:56:35.778Z,0.40
2022-11-19T15:59:06.367Z,0.40
2022-11-19T16:01:35.347Z,0.40
2022-11-19T16:04:13.544Z,0.30
2022-11-19T16:06:44.746Z,0.30
2022-11-19T16:09:19.967Z,0.30
2022-11-19T16:12:05.289Z,0.40
2022-11-19T16:14:50.335Z,0.50
2022-11-19T16:17:43.808Z,0.50
2022-11-19T16:20:11.060Z,0.50
2022-11-19T16:22:47.432Z,0.50
2022-11-19T16:25:19.362Z,0.50
2022-11-19T16:27:46.196Z,0.40
2022-11-19T16:30:23.832Z,0.40
2022-11-19T16:32:50.629Z,0.40
2022-11-19T16:35:27.871Z,0.30
2022-11-19T16:37:54.962Z,0.30
2022-11-19T16:40:21.706Z,0.30
2022-11-19T16:42:58.292Z,0.20
2022-11-19T16:45:29.903Z,0.20
2022-11-19T16:47:57.294Z,0.20
2022-11-19T16:50:27.227Z,0.20
2022-11-19T16:52:54.537Z,0.20
2022-11-19T16:55:24.362Z,0.20
2022-11-19T16:57:56.223Z,0.20
2022-11-19T17:00:24.259Z,0.10
2022-11-19T17:02:51.303Z,0.10
2022-11-19T17:05:21.789Z,0.00
2022-11-19T17:07:51.988Z,0.00
2022-11-19T17:10:27.030Z,0.00
2022-11-19T17:12:54.644Z,-0.10
2022-11-19T17:15:40.328Z,0.00
2022-11-19T17:18:10.078Z,0.00
2022-11-19T17:20:36.823Z,0.00
2022-11-19T17:23:10.280Z,0.00
2022-11-19T17:25:44.759Z,0.00
2022-11-19T17:28:11.495Z,0.00
2022-11-19T17:30:38.319Z,0.00
2022-11-19T17:33:05.143Z,-0.10
2022-11-19T17:35:32.881Z,-0.10
2022-11-19T17:38:00.434Z,-0.10
2022-11-19T17:40:27.156Z,-0.20
2022-11-19T17:43:12.652Z,-0.20
2022-11-19T17:45:39.371Z,-0.30
2022-11-19T17:48:14.537Z,-0.30
2022-11-19T17:50:43.476Z,-0.20
2022-11-19T17:53:10.194Z,-0.20
2022-11-19T17:55:41.755Z,-0.20
2022-11-19T17:58:09.167Z,-0.20
2022-11-19T18:00:38.149Z,-0.20
2022-11-19T18:03:04.928Z,-0.10
2022-11-19T18:05:35.849Z,-0.20
2022-11-19T18:08:02.589Z,-0.20
2022-11-19T18:10:29.325Z,-0.10
2022-11-19T18:12:58.883Z,-0.10
2022-11-19T18:15:25.582Z,-0.10
2022-11-19T18:17:54.445Z,-0.10
2022-11-19T18:20:23.698Z,-0.10
2022-11-19T18:22:50.397Z,-0.10
2022-11-19T18:25:18.569Z,-0.10
2022-11-19T18:27:47.887Z,-0.10
2022-11-19T18:30:17.512Z,-0.20
2022-11-19T18:32:44.252Z,-0.10
2022-11-19T18:35:15.526Z,-0.10
2022-11-19T18:37:42.641Z,-0.10
2022-11-19T18:40:09.701Z,-0.10
2022-11-19T18:42:36.502Z,-0.10
2022-11-19T18:45:03.296Z,-0.10
2022-11-19T18:47:29.978Z,-0.10
2022-11-19T18:50:01.110Z,-0.10
2022-11-19T18:52:27.969Z,-0.10
2022-11-19T18:54:54.841Z,-0.10
2022-11-19T18:57:23.761Z,0.10
2022-11-19T18:59:55.148Z,-0.10
2022-11-19T19:02:21.852Z,-0.20
2022-11-19T19:04:51.053Z,-0.20
2022-11-19T19:07:18.180Z,-0.20
2022-11-19T19:09:44.911Z,-0.20
2022-11-19T19:12:17.685Z,-0.20
2022-11-19T19:14:45.508Z,-0.20
2022-11-19T19:17:12.842Z,-0.20
2022-11-19T19:19:41.763Z,-0.20
2022-11-19T19:22:10.644Z,-0.20
2022-11-19T19:24:39.879Z,-0.20
2022-11-19T19:27:09.161Z,-0.20
2022-11-19T19:29:36.083Z,-0.20
2022-11-19T19:32:02.853Z,-0.20
2022-11-19T19:34:29.991Z,-0.20
2022-11-19T19:44:20.908Z,-0.20
2022-11-19T19:46:50.758Z,-0.40
2022-11-19T19:49:17.504Z,-0.30
2022-11-19T19:51:44.395Z,-0.30
2022-11-19T19:54:11.176Z,-0.30
2022-11-19T19:56:38.006Z,-0.30
2022-11-19T19:59:06.919Z,-0.30
2022-11-19T20:01:35.450Z,-0.20
2022-11-19T20:04:07.477Z,-0.20
2022-11-19T20:06:35.347Z,-0.20
2022-11-19T20:09:07.036Z,-0.20
2022-11-19T20:11:35.225Z,-0.20
2022-11-19T20:14:01.995Z,-0.20
2022-11-19T20:16:32.015Z,-0.20
2022-11-19T20:18:59.472Z,-0.20
2022-11-19T20:21:27.737Z,-0.30
2022-11-19T20:23:56.664Z,-0.20
2022-11-19T20:26:24.821Z,-0.20
2022-11-19T20:28:58.110Z,-0.20
2022-11-19T20:31:27.500Z,-0.30
2022-11-19T20:33:55.987Z,-0.20
2022-11-19T20:36:24.435Z,-0.20
2022-11-19T20:38:51.348Z,-0.20
2022-11-19T20:41:37.287Z,-0.20
2022-11-19T20:44:23.403Z,-0.20
2022-11-19T20:46:51.551Z,-0.20
2022-11-19T20:49:19.223Z,0.60
2022-11-19T20:51:46.478Z,-0.20
2022-11-19T20:54:13.225Z,-0.20
2022-11-19T20:56:40.135Z,-0.20
2022-11-19T20:59:06.962Z,-0.20
2022-11-19T21:01:34.041Z,-0.30
2022-11-19T21:04:00.787Z,-0.30
2022-11-19T21:06:27.612Z,-0.30
2022-11-19T21:13:51.412Z,-0.20
2022-11-19T21:16:20.204Z,-0.40
2022-11-19T21:18:49.213Z,-0.40
2022-11-19T21:21:16.636Z,-0.40
2022-11-19T21:26:19.869Z,-0.30
2022-11-19T21:28:48.447Z,-0.40
2022-11-19T21:31:16.088Z,-0.50
2022-11-19T21:33:42.986Z,-0.50
2022-11-19T21:36:12.602Z,-0.60
2022-11-19T21:38:39.493Z,-0.60
2022-11-19T21:41:06.401Z,-0.60
2022-11-19T21:43:33.156Z,-0.70
2022-11-19T21:45:59.852Z,-0.70
2022-11-19T21:50:53.754Z,-0.60
2022-11-19T21:53:22.793Z,-0.60
2022-11-19T21:55:49.616Z,-0.70
2022-11-19T21:58:16.797Z,-0.70
2022-11-19T22:00:47.020Z,-0.70
2022-11-19T22:03:14.403Z,-0.70
2022-11-19T22:05:41.399Z,-0.70
2022-11-19T22:15:32.010Z,-0.90
2022-11-19T22:17:58.724Z,-0.70
2022-11-19T22:20:27.626Z,-0.70
2022-11-19T22:22:58.206Z,-0.70
2022-11-19T22:25:24.903Z,-0.70
2022-11-19T22:27:53.896Z,-0.70
2022-11-19T22:30:20.597Z,-0.70
2022-11-19T22:32:47.283Z,-0.70
2022-11-19T22:35:14.077Z,-0.80
2022-11-19T22:37:40.772Z,-0.90
2022-11-19T22:40:10.277Z,-0.90
2022-11-19T22:42:36.982Z,-0.90
2022-11-19T22:45:06.436Z,-0.90
2022-11-19T22:47:33.168Z,-0.90
2022-11-19T22:49:59.846Z,-0.90
2022-11-19T22:52:31.114Z,-0.80
2022-11-19T22:54:57.990Z,-1.10
2022-11-19T22:57:25.603Z,-0.90
2022-11-19T22:59:52.355Z,-0.90
2022-11-19T23:02:19.053Z,-0.90
2022-11-19T23:04:48.008Z,-0.90
2022-11-19T23:07:16.790Z,-1.00
2022-11-19T23:09:46.094Z,-1.00
2022-11-19T23:12:31.603Z,-1.00
2022-11-19T23:14:58.288Z,-0.90
2022-11-19T23:17:25.035Z,-1.00
2022-11-19T23:19:51.725Z,-1.00
2022-11-19T23:22:18.404Z,-0.90
2022-11-19T23:24:45.120Z,-0.90
2022-11-19T23:27:12.095Z,-0.90
2022-11-19T23:29:38.786Z,-0.80
2022-11-19T23:32:08.191Z,-0.90
2022-11-19T23:34:34.872Z,-0.90
2022-11-19T23:37:03.802Z,-0.90
2022-11-19T23:39:30.545Z,-0.90
2022-11-19T23:41:57.283Z,-0.90
2022-11-19T23:44:24.076Z,-0.90
2022-11-19T23:46:53.273Z,-0.90
2022-11-19T23:49:20.274Z,-1.00
2022-11-19T23:51:47.155Z,-1.00
2022-11-19T23:54:14.269Z,-1.00
2022-11-19T23:56:43.311Z,-1.00
2022-11-19T23:59:12.623Z,-1.00
